createdAt,value
2017-02-03T00:05:41.234Z,0
2017-02-03T00:15:52.466Z,0
2017-02-03T00:26:03.731Z,0
2017-02-03T00:36:14.983Z,0
2017-02-03T00:46:26.185Z,0
2017-02-03T00:56:37.318Z,0
2017-02-03T01:06:48.456Z,0
2017-02-03T01:16:59.612Z,0
2017-02-03T01:27:10.825Z,0
2017-02-03T01:37:22.020Z,0
2017-02-03T01:47:33.193Z,0
2017-02-03T01:57:44.454Z,0
2017-02-03T02:07:55.625Z,0
2017-02-03T02:18:06.805Z,0
2017-02-03T02:28:17.920Z,0
2017-02-03T02:38:29.091Z,0
2017-02-03T02:48:40.289Z,0
2017-02-03T02:58:51.441Z,0
2017-02-03T03:09:02.633Z,0
2017-02-03T03:19:13.837Z,0
2017-02-03T03:29:25.064Z,0
2017-02-03T03:39:36.305Z,0
2017-02-03T03:49:47.472Z,0
2017-02-03T03:59:58.616Z,0
2017-02-03T04:10:09.830Z,0
2017-02-03T04:20:21.148Z,0
2017-02-03T04:30:32.411Z,0
2017-02-03T04:40:43.611Z,0
2017-02-03T04:50:54.828Z,0
2017-02-03T05:01:05.967Z,0
2017-02-03T05:11:17.055Z,0
2017-02-03T05:21:28.113Z,0
2017-02-03T05:31:39.214Z,0
2017-02-03T05:41:50.259Z,0
2017-02-03T05:52:01.293Z,0
2017-02-03T06:02:12.296Z,0
2017-02-03T06:12:23.293Z,0
2017-02-03T06:22:34.293Z,0
2017-02-03T06:32:45.237Z,0
2017-02-03T06:42:56.183Z,8
2017-02-03T06:53:07.121Z,36
2017-02-03T07:03:18.078Z,108
2017-02-03T07:13:29.052Z,204
2017-02-03T07:23:39.935Z,400
2017-02-03T07:33:50.850Z,892
2017-02-03T07:44:01.781Z,1432
2017-02-03T07:54:12.695Z,1920
2017-02-03T08:04:23.495Z,1856
2017-02-03T08:14:34.241Z,1684
2017-02-03T08:24:44.965Z,2500
2017-02-03T08:34:55.636Z,3880
2017-02-03T08:45:06.362Z,3308
2017-02-03T08:55:17.028Z,3728
2017-02-03T09:05:27.624Z,5868
2017-02-03T09:15:38.209Z,9908
2017-02-03T09:25:48.727Z,7348
2017-02-03T09:35:59.215Z,7392
2017-02-03T09:46:09.626Z,6080
2017-02-03T09:56:20.077Z,5024
2017-02-03T10:06:30.531Z,6920
2017-02-03T10:16:40.959Z,10192
2017-02-03T10:26:51.339Z,12172
2017-02-03T10:37:01.650Z,15144
2017-02-03T10:47:11.989Z,12304
2017-02-03T10:57:22.341Z,9764
2017-02-03T11:07:32.668Z,6224
2017-02-03T11:17:43.017Z,8404
2017-02-03T11:27:53.383Z,5992
2017-02-03T11:38:03.796Z,7864
2017-02-03T11:48:14.175Z,13356
2017-02-03T11:58:24.524Z,11676
2017-02-03T12:08:34.724Z,9416
2017-02-03T12:18:44.948Z,8224
2017-02-03T12:28:55.210Z,10892
2017-02-03T12:39:05.456Z,11232
2017-02-03T12:49:15.640Z,9404
2017-02-03T12:59:25.914Z,9428
2017-02-03T13:09:36.221Z,9480
2017-02-03T13:19:46.464Z,10016
2017-02-03T13:29:56.678Z,9440
2017-02-03T13:40:06.858Z,6992
2017-02-03T13:50:17.070Z,15552
2017-02-03T14:00:27.237Z,32480
2017-02-03T14:10:37.113Z,51168
2017-02-03T14:20:46.570Z,27328
2017-02-03T14:30:55.850Z,31328
2017-02-03T14:41:05.261Z,9788
2017-02-03T14:51:14.994Z,6052
2017-02-03T15:01:24.928Z,4968
2017-02-03T15:11:35.021Z,1192
2017-02-03T15:21:45.262Z,1072
2017-02-03T15:31:55.556Z,1004
2017-02-03T15:42:05.850Z,968
2017-02-03T15:52:16.244Z,472
2017-02-03T16:02:26.634Z,476
2017-02-03T16:12:37.066Z,356
2017-02-03T16:22:47.530Z,176
2017-02-03T16:32:57.960Z,84
2017-02-03T16:43:08.438Z,16
2017-02-03T16:53:18.915Z,0
2017-02-03T17:03:29.431Z,0
2017-02-03T17:13:39.933Z,0
2017-02-03T17:23:50.500Z,0
2017-02-03T17:34:01.114Z,0
2017-02-03T17:44:11.789Z,0
2017-02-03T17:54:22.458Z,0
2017-02-03T18:04:33.155Z,0
2017-02-03T18:14:43.959Z,0
2017-02-03T18:24:54.743Z,0
2017-02-03T18:35:05.637Z,0
2017-02-03T18:45:16.482Z,0
2017-02-03T18:55:27.398Z,0
2017-02-03T19:05:38.290Z,0
2017-02-03T19:15:49.203Z,0
2017-02-03T19:26:00.190Z,0
2017-02-03T19:36:11.127Z,0
2017-02-03T19:46:22.059Z,0
2017-02-03T19:56:32.974Z,0
2017-02-03T20:06:43.877Z,0
2017-02-03T20:16:54.798Z,0
2017-02-03T20:27:05.659Z,0
2017-02-03T20:37:16.532Z,0
2017-02-03T20:47:27.467Z,0
2017-02-03T20:57:38.428Z,0
2017-02-03T21:07:49.457Z,0
2017-02-03T21:18:00.496Z,0
2017-02-03T21:28:11.550Z,0
2017-02-03T21:38:22.662Z,0
2017-02-03T21:48:33.818Z,0
2017-02-03T21:58:44.959Z,0
2017-02-03T22:08:56.210Z,0
2017-02-03T22:19:07.203Z,0
2017-02-03T22:29:18.393Z,0
2017-02-03T22:39:29.687Z,0
2017-02-03T22:49:41.020Z,0
2017-02-03T22:59:52.371Z,0
2017-02-03T23:10:03.804Z,0
2017-02-03T23:20:15.166Z,0
2017-02-03T23:30:26.488Z,0
2017-02-03T23:40:37.778Z,0
2017-02-03T23:50:49.074Z,0
